Terminal Aerodrome Forecast
Issued by NWS Billings, MT

Home | Current Version | Previous Version | Text Only | Print | Product List | Glossary On
Versions: 1 2 3 4 5 6 7 8 9 10 11 12 13 14 15 16 17 18 19 20 21 22 23 24 25 26 27 28 29 30 31 32 33 34 35 36 37 38 39 40 41 42 43 44 45 46
531
FTUS45 KBYZ 280527
TAFBIL
TAF
KBIL 280527Z 2806/2906 VRB05KT P6SM FEW060 BKN100
     FM281000 VRB05KT P6SM VCFG FEW005 BKN050
     FM281600 27008KT P6SM SCT060 SCT250=

USA.gov is the U.S. government's official web portal to all federal, state and local government web resources and services.